createdAt,value
2018-07-03T00:00:33.375Z,1.20
2018-07-03T00:01:33.448Z,1.40
2018-07-03T00:02:33.322Z,1.20
2018-07-03T00:03:33.301Z,1.30
2018-07-03T00:04:33.279Z,1.00
2018-07-03T00:05:33.262Z,1.20
2018-07-03T00:06:33.233Z,1.30
2018-07-03T00:07:33.208Z,0.90
2018-07-03T00:08:33.184Z,1.20
2018-07-03T00:09:33.164Z,1.20
2018-07-03T00:10:33.149Z,1.30
2018-07-03T00:11:33.214Z,1.40
2018-07-03T00:12:33.101Z,1.20
2018-07-03T00:13:33.118Z,1.10
2018-07-03T00:14:33.050Z,1.20
2018-07-03T00:15:33.025Z,1.20
2018-07-03T00:16:33.008Z,1.10
2018-07-03T00:17:32.980Z,1.30
2018-07-03T00:18:32.956Z,1.10
2018-07-03T00:19:32.955Z,1.10
2018-07-03T00:20:32.910Z,1.20
2018-07-03T00:21:32.884Z,1.20
2018-07-03T00:22:32.873Z,1.10
2018-07-03T00:23:32.880Z,1.30
2018-07-03T00:24:32.831Z,1.00
2018-07-03T00:25:32.903Z,1.10
2018-07-03T00:26:32.785Z,1.00
2018-07-03T00:27:32.813Z,1.20
2018-07-03T00:28:32.723Z,1.10
2018-07-03T00:29:32.720Z,1.20
2018-07-03T00:30:32.686Z,1.20
2018-07-03T00:31:32.739Z,1.10
2018-07-03T00:32:32.634Z,1.20
2018-07-03T00:33:32.645Z,1.30
2018-07-03T00:34:32.594Z,1.10
2018-07-03T00:35:32.659Z,1.50
2018-07-03T00:36:32.549Z,1.20
2018-07-03T00:37:32.571Z,1.50
2018-07-03T00:38:32.506Z,1.30
2018-07-03T00:39:32.580Z,1.00
2018-07-03T00:40:32.471Z,1.40
2018-07-03T00:41:32.497Z,1.30
2018-07-03T00:42:32.405Z,1.10
2018-07-03T00:43:32.407Z,1.10
2018-07-03T00:44:32.365Z,1.30
2018-07-03T00:45:32.420Z,1.20
2018-07-03T00:46:32.318Z,1.10
2018-07-03T00:47:32.331Z,1.20
2018-07-03T00:48:32.271Z,1.20
2018-07-03T00:49:32.348Z,1.40
2018-07-03T00:50:32.225Z,1.30
2018-07-03T00:51:32.257Z,1.00
2018-07-03T00:52:32.180Z,1.30
2018-07-03T00:53:32.168Z,1.20
2018-07-03T00:54:32.132Z,1.20
2018-07-03T00:55:32.200Z,1.20
2018-07-03T00:56:32.084Z,1.40
2018-07-03T00:57:33.112Z,1.10
2018-07-03T00:58:32.041Z,1.30
2018-07-03T00:59:32.105Z,1.30
2018-07-03T01:00:32.009Z,1.30
2018-07-03T01:01:31.970Z,1.20
2018-07-03T01:02:31.948Z,1.30
2018-07-03T01:03:31.927Z,1.20
2018-07-03T01:04:31.917Z,1.20
2018-07-03T01:05:31.942Z,0.90
2018-07-03T01:06:31.861Z,1.20
2018-07-03T01:07:33.413Z,1.10
2018-07-03T01:08:31.832Z,1.20
2018-07-03T01:09:31.797Z,1.10
2018-07-03T01:10:31.846Z,1.30
2018-07-03T01:11:31.744Z,1.40
2018-07-03T01:12:31.718Z,1.10
2018-07-03T01:13:31.764Z,1.10
2018-07-03T01:14:31.668Z,1.10
2018-07-03T01:15:31.676Z,1.30
2018-07-03T01:16:31.623Z,1.00
2018-07-03T01:17:31.627Z,1.40
2018-07-03T01:18:31.594Z,1.30
2018-07-03T01:19:31.557Z,1.30
2018-07-03T01:20:31.613Z,1.20
2018-07-03T01:21:31.510Z,1.30
2018-07-03T01:22:31.479Z,1.00
2018-07-03T01:23:31.526Z,1.10
2018-07-03T01:24:31.448Z,1.40
2018-07-03T01:25:31.447Z,1.20
2018-07-03T01:26:31.390Z,1.40
2018-07-03T01:27:31.366Z,1.30
2018-07-03T01:28:31.361Z,1.10
2018-07-03T01:29:31.318Z,1.20
2018-07-03T01:30:31.371Z,1.30
2018-07-03T01:31:31.274Z,1.50
2018-07-03T01:32:31.286Z,1.10
2018-07-03T01:33:31.236Z,1.20
2018-07-03T01:34:31.293Z,1.30
2018-07-03T01:35:31.183Z,1.20
2018-07-03T01:36:31.208Z,1.30
2018-07-03T01:37:31.133Z,1.40
2018-07-03T01:38:31.218Z,1.40
2018-07-03T01:39:31.106Z,0.90
2018-07-03T01:40:31.129Z,1.30
2018-07-03T01:41:31.031Z,1.40
2018-07-03T01:42:31.044Z,1.30
2018-07-03T01:43:30.993Z,1.20
2018-07-03T01:44:31.055Z,1.30
2018-07-03T01:45:30.951Z,1.20
2018-07-03T01:46:32.004Z,1.30
2018-07-03T01:47:30.897Z,1.30
2018-07-03T01:48:30.978Z,1.20
2018-07-03T01:49:30.857Z,1.10
2018-07-03T01:50:30.832Z,1.20
2018-07-03T01:51:30.901Z,1.30
2018-07-03T01:52:30.778Z,1.30
2018-07-03T01:53:30.811Z,1.30
2018-07-03T01:54:30.731Z,1.20
2018-07-03T01:55:30.727Z,1.40
2018-07-03T01:56:30.689Z,1.40
2018-07-03T01:57:30.799Z,1.30
2018-07-03T01:58:30.633Z,1.10
2018-07-03T01:59:30.651Z,1.20
2018-07-03T02:00:30.610Z,1.20
2018-07-03T02:01:31.690Z,1.20
2018-07-03T02:02:30.540Z,1.10
2018-07-03T02:03:30.571Z,1.40
2018-07-03T02:04:30.497Z,1.40
2018-07-03T02:05:31.501Z,1.20
2018-07-03T02:06:30.459Z,1.50
2018-07-03T02:07:30.507Z,1.20
2018-07-03T02:08:30.410Z,1.90
2018-07-03T02:09:30.404Z,1.40
2018-07-03T02:10:30.362Z,1.30
2018-07-03T02:11:30.419Z,1.30
2018-07-03T02:12:30.315Z,1.30
2018-07-03T02:13:30.338Z,1.70
2018-07-03T02:14:30.266Z,1.20
2018-07-03T02:15:30.342Z,1.20
2018-07-03T02:16:30.217Z,1.20
2018-07-03T02:17:30.198Z,1.40
2018-07-03T02:18:30.170Z,1.50
2018-07-03T02:19:30.155Z,1.40
2018-07-03T02:20:30.216Z,1.20
2018-07-03T02:21:30.090Z,1.30
2018-07-03T02:22:30.122Z,1.30
2018-07-03T02:23:30.056Z,1.40
2018-07-03T02:24:30.131Z,1.20
2018-07-03T02:25:30.011Z,1.30
2018-07-03T02:26:29.996Z,1.40
2018-07-03T02:27:29.964Z,1.30
2018-07-03T02:28:29.963Z,1.30
2018-07-03T02:29:29.922Z,1.50
2018-07-03T02:30:29.977Z,1.20
2018-07-03T02:31:29.901Z,1.30
2018-07-03T02:32:29.844Z,1.60
2018-07-03T02:33:29.817Z,1.70
2018-07-03T02:34:29.900Z,1.50
2018-07-03T02:35:29.768Z,1.40
2018-07-03T02:36:30.833Z,1.60
2018-07-03T02:37:29.727Z,1.70
2018-07-03T02:38:29.726Z,1.60
2018-07-03T02:39:29.676Z,1.30
2018-07-03T02:40:30.760Z,1.50
2018-07-03T02:41:29.641Z,1.50
2018-07-03T02:42:29.647Z,1.40
2018-07-03T02:43:29.582Z,1.40
2018-07-03T02:44:29.559Z,1.50
2018-07-03T02:45:29.563Z,1.50
2018-07-03T02:46:29.514Z,1.50
2018-07-03T02:47:30.498Z,1.50
2018-07-03T02:48:29.464Z,1.40
2018-07-03T02:49:29.499Z,1.70
2018-07-03T02:50:29.415Z,1.50
2018-07-03T02:51:30.472Z,1.40
2018-07-03T02:52:29.380Z,1.70
2018-07-03T02:53:29.419Z,1.50
2018-07-03T02:54:29.335Z,1.50
2018-07-03T02:55:29.329Z,1.50
2018-07-03T02:56:29.287Z,1.60
2018-07-03T02:57:29.346Z,1.50
2018-07-03T02:58:29.223Z,1.50
2018-07-03T02:59:30.287Z,2.00
2018-07-03T03:00:29.199Z,1.70
2018-07-03T03:01:30.190Z,1.70
2018-07-03T03:02:29.147Z,1.80
2018-07-03T03:03:30.203Z,1.70
2018-07-03T03:04:29.100Z,1.60
2018-07-03T03:05:30.112Z,1.60
2018-07-03T03:06:29.036Z,1.70
2018-07-03T03:07:29.117Z,1.60
2018-07-03T03:08:28.988Z,1.70
2018-07-03T03:09:29.024Z,1.60
2018-07-03T03:10:28.947Z,1.60
2018-07-03T03:11:29.029Z,2.00
2018-07-03T03:12:28.909Z,1.90
2018-07-03T03:13:28.945Z,1.80
2018-07-03T03:14:28.848Z,1.80
2018-07-03T03:15:28.856Z,1.80
2018-07-03T03:16:28.807Z,1.80
2018-07-03T03:17:29.886Z,2.10
2018-07-03T03:18:28.755Z,1.70
2018-07-03T03:19:29.797Z,2.00
2018-07-03T03:20:28.706Z,1.90
2018-07-03T03:21:28.793Z,1.90
2018-07-03T03:22:28.697Z,1.80
2018-07-03T03:23:29.735Z,1.80
2018-07-03T03:24:28.614Z,2.40
2018-07-03T03:25:28.618Z,2.10
2018-07-03T03:26:28.564Z,2.00
2018-07-03T03:27:28.561Z,2.00
2018-07-03T03:28:34.456Z,2.30
2018-07-03T03:29:28.503Z,1.80
2018-07-03T03:30:29.587Z,1.80
2018-07-03T03:31:28.453Z,1.90
2018-07-03T03:32:30.442Z,2.10
2018-07-03T03:33:28.402Z,1.70
2018-07-03T03:34:28.452Z,1.60
2018-07-03T03:35:28.359Z,1.70
2018-07-03T03:36:28.369Z,2.30
2018-07-03T03:37:28.310Z,2.10
2018-07-03T03:38:29.398Z,2.30
2018-07-03T03:39:28.275Z,1.80
2018-07-03T03:40:28.303Z,2.30
2018-07-03T03:41:28.218Z,2.10
2018-07-03T03:42:28.238Z,2.10
2018-07-03T03:43:28.206Z,2.10
2018-07-03T03:44:28.144Z,2.20
2018-07-03T03:45:28.225Z,2.30
2018-07-03T03:46:28.094Z,1.90
2018-07-03T03:47:28.143Z,2.10
2018-07-03T03:48:28.072Z,2.50
2018-07-03T03:49:28.053Z,2.20
2018-07-03T03:50:27.999Z,2.50
2018-07-03T03:51:28.069Z,2.30
2018-07-03T03:52:27.952Z,2.30
2018-07-03T03:53:27.979Z,2.10
2018-07-03T03:54:27.922Z,2.10
2018-07-03T03:55:27.998Z,2.50
2018-07-03T03:56:27.855Z,2.20
2018-07-03T03:57:27.829Z,2.10
2018-07-03T03:58:27.905Z,2.50
2018-07-03T03:59:27.792Z,2.30
2018-07-03T04:00:27.829Z,2.10
2018-07-03T04:01:27.742Z,2.10
2018-07-03T04:02:27.850Z,2.20
2018-07-03T04:03:27.696Z,2.20
2018-07-03T04:04:27.682Z,2.10
2018-07-03T04:05:27.757Z,2.20
2018-07-03T04:06:27.620Z,2.20
2018-07-03T04:07:27.681Z,2.30
2018-07-03T04:08:27.569Z,2.30
2018-07-03T04:09:27.705Z,2.20
2018-07-03T04:10:27.544Z,2.20
2018-07-03T04:11:27.606Z,2.20
2018-07-03T04:12:27.495Z,2.30
2018-07-03T04:13:27.497Z,2.00
2018-07-03T04:14:27.440Z,1.90
2018-07-03T04:15:27.513Z,2.40
2018-07-03T04:16:27.391Z,2.70
2018-07-03T04:17:29.483Z,2.40
2018-07-03T04:18:27.349Z,2.30
2018-07-03T04:19:27.422Z,2.30
2018-07-03T04:20:27.296Z,2.60
2018-07-03T04:21:27.343Z,2.30
2018-07-03T04:22:27.253Z,2.10
2018-07-03T04:23:27.248Z,2.50
2018-07-03T04:24:27.221Z,2.50
2018-07-03T04:25:27.184Z,2.50
2018-07-03T04:26:27.164Z,2.40
2018-07-03T04:27:27.132Z,2.40
2018-07-03T04:28:27.120Z,2.40
2018-07-03T04:29:27.201Z,2.30
2018-07-03T04:30:27.133Z,2.50
2018-07-03T04:31:27.098Z,2.50
2018-07-03T04:32:27.016Z,2.90
2018-07-03T04:33:27.038Z,3.00
2018-07-03T04:34:26.968Z,2.30
2018-07-03T04:35:26.944Z,3.10
2018-07-03T04:36:26.924Z,2.90
2018-07-03T04:37:26.890Z,2.60
2018-07-03T04:38:26.878Z,3.10
2018-07-03T04:39:26.863Z,3.10
2018-07-03T04:40:26.839Z,2.80
2018-07-03T04:41:26.900Z,2.90
2018-07-03T04:42:26.780Z,2.80
2018-07-03T04:43:26.755Z,2.90
2018-07-03T04:44:26.725Z,2.80
2018-07-03T04:45:26.800Z,2.60
2018-07-03T04:46:26.691Z,2.60
2018-07-03T04:47:26.655Z,2.80
2018-07-03T04:48:26.638Z,2.90
2018-07-03T04:49:26.617Z,2.80
2018-07-03T04:50:26.638Z,2.70
2018-07-03T04:51:26.587Z,3.00
2018-07-03T04:52:26.629Z,2.80
2018-07-03T04:53:26.595Z,3.20
2018-07-03T04:54:26.546Z,2.70
2018-07-03T04:55:26.468Z,2.60
2018-07-03T04:56:26.561Z,2.70
2018-07-03T04:57:26.424Z,3.00
2018-07-03T04:58:26.516Z,2.80
2018-07-03T04:59:26.377Z,3.40
2018-07-03T05:00:26.370Z,3.30
2018-07-03T05:01:26.391Z,2.80
2018-07-03T05:02:26.310Z,2.50
2018-07-03T05:03:26.320Z,2.80
2018-07-03T05:04:26.261Z,2.50
2018-07-03T05:05:26.244Z,2.80
2018-07-03T05:06:26.208Z,2.60
2018-07-03T05:07:26.244Z,2.40
2018-07-03T05:08:26.158Z,2.80
2018-07-03T05:09:26.137Z,2.80
2018-07-03T05:10:26.139Z,2.40
2018-07-03T05:11:26.100Z,2.50
2018-07-03T05:12:26.200Z,2.60
2018-07-03T05:13:26.056Z,2.50
2018-07-03T05:14:26.050Z,2.40
2018-07-03T05:16:12.284Z,2.90
2018-07-03T05:17:12.105Z,2.70
2018-07-03T05:18:12.058Z,2.50
2018-07-03T05:19:12.073Z,2.80
2018-07-03T05:20:12.022Z,2.50
2018-07-03T05:21:11.988Z,2.60
2018-07-03T05:22:11.970Z,2.60
2018-07-03T05:23:12.003Z,2.80
2018-07-03T05:24:11.928Z,2.50
2018-07-03T05:25:12.012Z,2.70
2018-07-03T05:26:11.863Z,2.50
2018-07-03T05:27:11.851Z,2.40
2018-07-03T05:28:11.821Z,3.40
2018-07-03T05:29:11.914Z,2.40
2018-07-03T05:30:11.785Z,2.70
2018-07-03T05:31:11.758Z,2.50
2018-07-03T05:32:11.774Z,2.60
2018-07-03T05:33:11.744Z,2.60
2018-07-03T05:34:11.703Z,2.40
2018-07-03T05:35:11.666Z,2.50
2018-07-03T05:36:11.633Z,2.50
2018-07-03T05:37:11.656Z,2.60
2018-07-03T05:38:11.595Z,2.70
2018-07-03T05:39:11.568Z,2.60
2018-07-03T05:40:11.550Z,2.50
2018-07-03T05:41:11.528Z,2.60
2018-07-03T05:42:11.494Z,2.60
2018-07-03T05:43:11.473Z,2.30
2018-07-03T05:44:11.444Z,2.60
2018-07-03T05:45:11.433Z,2.40
2018-07-03T05:46:11.396Z,2.90
2018-07-03T05:47:11.379Z,2.70
2018-07-03T05:48:11.376Z,2.20
2018-07-03T05:49:11.331Z,2.20
2018-07-03T05:50:11.303Z,3.30
2018-07-03T05:51:11.312Z,2.60
2018-07-03T05:52:11.277Z,2.60
2018-07-03T05:53:11.278Z,3.00
2018-07-03T05:54:11.230Z,2.70
2018-07-03T05:55:11.331Z,3.00
2018-07-03T05:56:11.216Z,2.60
2018-07-03T05:57:11.213Z,3.50
2018-07-03T05:58:11.180Z,3.00
2018-07-03T05:59:11.257Z,3.00
2018-07-03T06:00:11.243Z,2.60
2018-07-03T06:01:11.211Z,3.20
2018-07-03T06:02:11.014Z,2.30
2018-07-03T06:03:11.043Z,2.80
2018-07-03T06:04:10.985Z,3.10
2018-07-03T06:05:11.974Z,2.40
2018-07-03T06:06:10.925Z,2.80
2018-07-03T06:07:10.961Z,2.70
2018-07-03T06:08:10.886Z,2.50
2018-07-03T06:09:10.910Z,2.30
2018-07-03T06:10:10.830Z,2.10
2018-07-03T06:11:10.886Z,2.50
2018-07-03T06:12:10.779Z,2.50
2018-07-03T06:13:10.794Z,2.50
2018-07-03T06:14:10.744Z,2.50
2018-07-03T06:15:10.827Z,2.60
2018-07-03T06:16:10.704Z,2.30
2018-07-03T06:17:56.916Z,2.40
2018-07-03T06:18:56.846Z,2.20
2018-07-03T06:19:56.818Z,2.00
2018-07-03T06:20:56.802Z,2.10
2018-07-03T06:21:56.776Z,2.60
2018-07-03T06:22:56.758Z,2.10
2018-07-03T06:23:56.731Z,2.40
2018-07-03T06:24:56.723Z,2.50
2018-07-03T06:25:56.678Z,2.00
2018-07-03T06:26:56.663Z,1.90
2018-07-03T06:27:56.655Z,2.00
2018-07-03T06:28:56.725Z,2.00
2018-07-03T06:29:56.626Z,2.10
2018-07-03T06:30:56.584Z,1.90
2018-07-03T06:31:56.531Z,1.90
2018-07-03T06:32:56.518Z,2.20
2018-07-03T06:33:56.551Z,2.20
2018-07-03T06:34:56.469Z,2.10
2018-07-03T06:35:56.446Z,2.20
2018-07-03T06:36:56.429Z,2.00
2018-07-03T06:37:56.388Z,1.90
2018-07-03T06:38:56.365Z,2.00
2018-07-03T06:39:56.355Z,2.10
2018-07-03T06:40:56.321Z,1.70
2018-07-03T06:41:56.309Z,1.80
2018-07-03T06:42:56.272Z,2.30
2018-07-03T06:43:56.265Z,1.80
2018-07-03T06:44:56.284Z,1.90
2018-07-03T06:45:56.196Z,1.90
2018-07-03T06:46:56.248Z,2.10
2018-07-03T06:47:56.154Z,1.80
2018-07-03T06:48:56.133Z,1.90
2018-07-03T06:49:56.104Z,1.90
2018-07-03T06:50:56.081Z,2.00
2018-07-03T06:51:56.061Z,1.90
2018-07-03T06:52:56.101Z,1.80
2018-07-03T06:53:56.002Z,2.00
2018-07-03T06:54:56.005Z,1.80
2018-07-03T06:55:55.970Z,1.70
2018-07-03T06:56:55.939Z,1.70
2018-07-03T06:57:55.940Z,1.70
2018-07-03T06:58:55.900Z,1.60
2018-07-03T06:59:55.868Z,1.60
2018-07-03T07:00:55.846Z,1.80
2018-07-03T07:01:56.061Z,1.70
2018-07-03T07:02:55.794Z,1.40
2018-07-03T07:03:55.797Z,2.20
2018-07-03T07:04:55.765Z,1.80
2018-07-03T07:05:55.731Z,1.50
2018-07-03T07:06:55.716Z,1.80
2018-07-03T07:07:55.679Z,1.60
2018-07-03T07:08:55.711Z,2.10
2018-07-03T07:09:55.636Z,1.50
2018-07-03T07:10:55.609Z,1.30
2018-07-03T07:11:55.605Z,1.30
2018-07-03T07:12:55.561Z,1.30
2018-07-03T07:13:55.544Z,1.20
2018-07-03T07:14:55.585Z,1.60
2018-07-03T07:15:55.486Z,1.20
2018-07-03T07:16:55.579Z,1.50
2018-07-03T07:17:55.445Z,1.70
2018-07-03T07:18:55.550Z,1.60
2018-07-03T07:19:55.393Z,1.80
2018-07-03T07:20:55.382Z,1.40
2018-07-03T07:21:55.409Z,1.50
2018-07-03T07:22:55.315Z,1.40
2018-07-03T07:23:55.330Z,1.40
2018-07-03T07:24:55.277Z,1.00
2018-07-03T07:25:55.332Z,1.50
2018-07-03T07:26:55.269Z,1.30
2018-07-03T07:27:55.202Z,1.30
2018-07-03T07:28:55.175Z,1.60
2018-07-03T07:29:55.257Z,1.40
2018-07-03T07:30:55.125Z,1.40
2018-07-03T07:31:55.171Z,1.50
2018-07-03T07:32:55.090Z,1.50
2018-07-03T07:33:55.061Z,1.20
2018-07-03T07:34:55.043Z,1.20
2018-07-03T07:35:55.092Z,1.30
2018-07-03T07:36:54.992Z,1.30
2018-07-03T07:37:54.968Z,1.10
2018-07-03T07:38:54.945Z,1.20
2018-07-03T07:39:54.927Z,1.20
2018-07-03T07:40:54.895Z,1.40
2018-07-03T07:41:54.872Z,1.30
2018-07-03T07:42:54.881Z,1.40
2018-07-03T07:43:54.820Z,1.50
2018-07-03T07:44:54.806Z,1.40
2018-07-03T07:45:54.786Z,1.40
2018-07-03T07:46:54.739Z,1.70
2018-07-03T07:48:40.406Z,1.20
2018-07-03T07:49:40.342Z,0.80
2018-07-03T07:50:40.261Z,1.00
2018-07-03T07:51:40.301Z,1.00
2018-07-03T07:52:40.274Z,1.10
2018-07-03T07:53:40.265Z,1.00
2018-07-03T07:54:40.165Z,1.40
2018-07-03T07:55:40.147Z,1.10
2018-07-03T07:56:40.127Z,0.90
2018-07-03T07:57:40.108Z,1.10
2018-07-03T07:58:40.070Z,1.60
2018-07-03T07:59:40.052Z,1.30
2018-07-03T08:00:40.020Z,1.00
2018-07-03T08:01:40.010Z,1.20
2018-07-03T08:02:39.981Z,1.20
2018-07-03T08:03:39.971Z,0.90
2018-07-03T08:04:39.953Z,1.00
2018-07-03T08:05:39.906Z,1.00
2018-07-03T08:06:39.948Z,1.40
2018-07-03T08:07:39.852Z,1.90
2018-07-03T08:08:39.851Z,1.20
2018-07-03T08:09:39.804Z,1.20
2018-07-03T08:10:40.783Z,1.00
2018-07-03T08:11:39.754Z,1.10
2018-07-03T08:12:39.742Z,1.00
2018-07-03T08:13:39.729Z,1.00
2018-07-03T08:14:39.687Z,1.10
2018-07-03T08:15:39.658Z,1.10
2018-07-03T08:16:39.642Z,1.00
2018-07-03T08:17:39.610Z,1.10
2018-07-03T08:18:39.604Z,0.80
2018-07-03T08:19:39.580Z,1.30
2018-07-03T08:20:40.584Z,1.30
2018-07-03T08:21:39.522Z,1.10
2018-07-03T08:22:40.503Z,1.10
2018-07-03T08:23:39.477Z,1.40
2018-07-03T08:24:39.456Z,1.00
2018-07-03T08:25:39.425Z,1.40
2018-07-03T08:26:39.460Z,1.10
2018-07-03T08:27:39.382Z,1.80
2018-07-03T08:28:39.355Z,1.50
2018-07-03T08:29:39.319Z,1.10
2018-07-03T08:30:40.299Z,1.40
2018-07-03T08:31:39.280Z,1.10
2018-07-03T08:32:43.834Z,1.40
2018-07-03T08:33:39.230Z,1.20
2018-07-03T08:34:40.212Z,1.20
2018-07-03T08:35:39.205Z,0.90
2018-07-03T08:36:39.163Z,1.00
2018-07-03T08:37:39.139Z,1.40
2018-07-03T08:38:39.120Z,1.00
2018-07-03T08:39:39.094Z,1.20
2018-07-03T08:40:39.065Z,1.40
2018-07-03T08:41:39.053Z,1.40
2018-07-03T08:42:43.866Z,1.70
2018-07-03T08:43:39.002Z,1.10
2018-07-03T08:44:38.995Z,1.10
2018-07-03T08:45:38.950Z,1.80
2018-07-03T08:46:38.928Z,1.80
2018-07-03T08:47:38.900Z,1.00
2018-07-03T08:48:38.886Z,1.20
2018-07-03T08:49:38.852Z,1.10
2018-07-03T08:50:38.830Z,1.40
2018-07-03T08:51:38.817Z,0.80
2018-07-03T08:52:39.782Z,1.00
2018-07-03T08:53:38.760Z,1.30
2018-07-03T08:54:38.821Z,1.10
2018-07-03T08:55:38.705Z,1.20
2018-07-03T08:56:38.731Z,1.10
2018-07-03T08:57:38.665Z,1.30
2018-07-03T08:58:39.751Z,1.10
2018-07-03T08:59:38.615Z,1.00
2018-07-03T09:00:38.634Z,0.90
2018-07-03T09:08:30.604Z,1.50
2018-07-03T09:09:28.987Z,0.90
2018-07-03T09:10:28.949Z,0.90
2018-07-03T09:11:28.975Z,1.00
2018-07-03T09:12:28.919Z,1.10
2018-07-03T09:13:28.888Z,1.90
2018-07-03T09:14:28.875Z,1.30
2018-07-03T09:15:28.865Z,1.00
2018-07-03T09:16:28.818Z,1.30
2018-07-03T09:17:28.787Z,1.00
2018-07-03T09:18:28.764Z,1.10
2018-07-03T09:19:28.736Z,1.00
2018-07-03T09:20:28.752Z,1.10
2018-07-03T09:21:28.691Z,0.90
2018-07-03T09:22:28.675Z,1.00
2018-07-03T09:23:28.744Z,1.00
2018-07-03T09:24:28.629Z,1.10
2018-07-03T09:25:28.620Z,1.00
2018-07-03T09:26:28.576Z,0.70
2018-07-03T09:27:28.554Z,1.00
2018-07-03T09:28:28.538Z,1.30
2018-07-03T09:29:28.508Z,1.10
2018-07-03T09:30:28.573Z,0.70
2018-07-03T09:31:28.529Z,1.40
2018-07-03T09:32:28.455Z,0.80
2018-07-03T09:33:28.425Z,0.70
2018-07-03T09:34:28.420Z,0.90
2018-07-03T09:35:28.517Z,0.90
2018-07-03T09:36:28.503Z,1.00
2018-07-03T09:37:28.329Z,0.70
2018-07-03T09:38:28.305Z,1.10
2018-07-03T09:39:28.288Z,1.40
2018-07-03T09:40:28.264Z,1.40
2018-07-03T09:41:28.239Z,0.90
2018-07-03T09:42:28.282Z,0.90
2018-07-03T09:43:28.196Z,1.40
2018-07-03T09:44:28.174Z,1.20
2018-07-03T09:45:28.191Z,1.70
2018-07-03T09:46:28.259Z,0.80
2018-07-03T09:47:28.109Z,1.00
2018-07-03T09:48:28.091Z,0.90
2018-07-03T09:49:28.122Z,1.10
2018-07-03T09:50:28.045Z,1.00
2018-07-03T09:51:28.037Z,1.00
2018-07-03T09:52:28.071Z,1.00
2018-07-03T09:53:27.983Z,1.00
2018-07-03T09:54:27.952Z,1.00
2018-07-03T09:55:27.917Z,0.80
2018-07-03T09:56:27.965Z,1.00
2018-07-03T09:57:27.909Z,0.80
2018-07-03T09:59:15.391Z,1.00
2018-07-03T10:00:15.337Z,0.70
2018-07-03T10:01:15.301Z,0.90
2018-07-03T10:02:15.280Z,0.90
2018-07-03T10:03:15.258Z,1.30
2018-07-03T10:04:15.246Z,1.10
2018-07-03T10:05:15.210Z,0.80
2018-07-03T10:06:15.249Z,0.80
2018-07-03T10:07:15.170Z,0.80
2018-07-03T10:08:15.256Z,0.80
2018-07-03T10:09:15.119Z,0.80
2018-07-03T10:10:15.206Z,1.20
2018-07-03T10:11:15.072Z,0.80
2018-07-03T10:12:15.102Z,1.00
2018-07-03T10:13:15.025Z,0.70
2018-07-03T10:14:15.094Z,1.30
2018-07-03T10:15:15.017Z,0.80
2018-07-03T10:16:15.046Z,0.90
2018-07-03T10:17:14.929Z,1.00
2018-07-03T10:18:15.063Z,0.80
2018-07-03T10:19:15.001Z,0.80
2018-07-03T10:20:14.865Z,1.20
2018-07-03T10:21:14.839Z,0.90
2018-07-03T10:22:14.822Z,3.50
2018-07-03T10:23:14.834Z,2.00
2018-07-03T10:24:14.898Z,2.00
2018-07-03T10:25:14.961Z,1.10
2018-07-03T10:26:15.038Z,0.80
2018-07-03T10:27:15.032Z,0.80
2018-07-03T10:28:14.689Z,0.80
2018-07-03T10:29:14.667Z,0.90
2018-07-03T10:30:14.640Z,0.80
2018-07-03T10:31:14.649Z,0.80
2018-07-03T10:32:14.685Z,0.90
2018-07-03T10:33:14.582Z,1.00
2018-07-03T10:34:14.628Z,0.80
2018-07-03T10:35:14.584Z,1.00
2018-07-03T10:36:14.538Z,0.80
2018-07-03T10:37:14.546Z,0.90
2018-07-03T10:39:01.481Z,1.30
2018-07-03T10:40:01.440Z,0.70
2018-07-03T10:41:01.504Z,0.90
2018-07-03T10:42:01.451Z,1.20
2018-07-03T10:43:01.394Z,1.60
2018-07-03T10:44:01.352Z,0.80
2018-07-03T10:45:01.321Z,1.00
2018-07-03T10:46:01.321Z,0.90
2018-07-03T10:47:01.376Z,0.80
2018-07-03T10:48:01.256Z,0.70
2018-07-03T10:49:01.387Z,0.80
2018-07-03T10:50:01.246Z,0.70
2018-07-03T10:51:01.290Z,0.90
2018-07-03T10:52:01.164Z,0.80
2018-07-03T10:53:02.248Z,0.80
2018-07-03T10:54:01.119Z,0.80
2018-07-03T10:55:01.317Z,0.80
2018-07-03T10:56:01.074Z,1.20
2018-07-03T10:57:02.276Z,0.80
2018-07-03T10:58:01.074Z,0.90
2018-07-03T10:59:01.182Z,1.10
2018-07-03T11:00:00.987Z,0.70
2018-07-03T11:01:01.056Z,0.90
2018-07-03T11:02:00.960Z,1.00
2018-07-03T11:03:01.072Z,0.90
2018-07-03T11:04:00.901Z,1.10
2018-07-03T11:05:01.004Z,0.80
2018-07-03T11:06:00.867Z,1.30
2018-07-03T11:07:01.051Z,0.90
2018-07-03T11:08:00.817Z,1.40
2018-07-03T11:09:00.907Z,1.10
2018-07-03T11:10:00.787Z,0.90
2018-07-03T11:11:00.828Z,1.60
2018-07-03T11:12:00.728Z,1.00
2018-07-03T11:13:01.892Z,1.10
2018-07-03T11:14:00.749Z,1.00
2018-07-03T11:15:01.783Z,1.00
2018-07-03T11:16:00.655Z,2.10
2018-07-03T11:17:00.764Z,1.70
2018-07-03T11:18:00.608Z,1.20
2018-07-03T11:19:46.399Z,1.00
2018-07-03T11:20:46.345Z,0.90
2018-07-03T11:21:46.283Z,0.90
2018-07-03T11:22:46.353Z,1.20
2018-07-03T11:23:46.232Z,0.90
2018-07-03T11:24:46.265Z,1.10
2018-07-03T11:25:46.161Z,0.90
2018-07-03T11:26:46.291Z,1.30
2018-07-03T11:27:46.129Z,1.10
2018-07-03T11:28:46.198Z,0.90
2018-07-03T11:29:46.073Z,0.90
2018-07-03T11:30:48.141Z,0.90
2018-07-03T11:31:46.034Z,0.90
2018-07-03T11:32:47.102Z,0.90
2018-07-03T11:33:46.025Z,0.80
2018-07-03T11:34:46.094Z,0.90
2018-07-03T11:35:45.937Z,1.20
2018-07-03T11:36:48.059Z,0.90
2018-07-03T11:37:46.038Z,0.90
2018-07-03T11:38:46.017Z,0.90
2018-07-03T11:39:45.892Z,0.80
2018-07-03T11:40:45.935Z,1.00
2018-07-03T11:41:45.819Z,1.00
2018-07-03T11:42:45.841Z,1.00
2018-07-03T11:43:45.782Z,0.80
2018-07-03T11:44:45.857Z,1.00
2018-07-03T11:45:45.724Z,0.90
2018-07-03T11:46:45.784Z,0.80
2018-07-03T11:47:45.675Z,0.70
2018-07-03T11:48:45.836Z,0.90
2018-07-03T11:49:45.653Z,0.70
2018-07-03T11:50:45.637Z,0.90
2018-07-03T11:51:45.606Z,0.80
2018-07-03T11:52:45.578Z,0.80
2018-07-03T11:53:45.561Z,0.90
2018-07-03T11:54:45.552Z,1.30
2018-07-03T11:55:45.508Z,0.80
2018-07-03T11:56:45.517Z,0.70
2018-07-03T11:57:45.464Z,0.80
2018-07-03T11:58:45.451Z,0.80
2018-07-03T11:59:45.424Z,0.80
2018-07-03T12:00:45.416Z,0.90
2018-07-03T12:01:45.492Z,1.00
2018-07-03T12:02:46.382Z,0.90
2018-07-03T12:03:45.344Z,0.80
2018-07-03T12:04:45.337Z,1.00
2018-07-03T12:05:45.286Z,1.30
2018-07-03T12:06:45.278Z,0.80
2018-07-03T12:07:45.250Z,0.80
2018-07-03T12:08:45.234Z,0.90
2018-07-03T12:09:45.217Z,1.50
2018-07-03T12:10:45.210Z,0.90
2018-07-03T12:11:45.161Z,0.90
2018-07-03T12:12:45.143Z,0.90
2018-07-03T12:13:45.117Z,1.20
2018-07-03T12:14:45.109Z,1.00
2018-07-03T12:15:45.096Z,1.10
2018-07-03T12:16:45.111Z,1.00
2018-07-03T12:17:45.030Z,1.10
2018-07-03T12:18:46.097Z,0.90
2018-07-03T12:19:45.037Z,0.80
2018-07-03T12:21:36.424Z,1.40
2018-07-03T12:22:36.300Z,0.90
2018-07-03T12:23:36.287Z,1.20
2018-07-03T12:24:36.248Z,0.90
2018-07-03T12:25:36.216Z,0.90
2018-07-03T12:26:36.234Z,1.00
2018-07-03T12:27:36.179Z,1.40
2018-07-03T12:28:36.157Z,1.60
2018-07-03T12:29:36.134Z,0.70
2018-07-03T12:30:36.120Z,0.90
2018-07-03T12:31:36.096Z,0.80
2018-07-03T12:32:38.089Z,0.80
2018-07-03T12:33:36.060Z,1.00
2018-07-03T12:34:36.047Z,1.10
2018-07-03T12:35:36.013Z,1.10
2018-07-03T12:36:37.030Z,0.90
2018-07-03T12:37:35.966Z,1.10
2018-07-03T12:38:35.960Z,0.90
2018-07-03T12:39:35.937Z,1.00
2018-07-03T12:40:35.978Z,1.40
2018-07-03T12:41:35.885Z,0.70
2018-07-03T12:42:37.938Z,0.90
2018-07-03T12:43:35.852Z,1.00
2018-07-03T12:44:36.928Z,1.10
2018-07-03T12:45:35.804Z,1.00
2018-07-03T12:46:36.839Z,0.90
2018-07-03T12:47:35.760Z,1.20
2018-07-03T12:48:36.865Z,1.10
2018-07-03T12:49:35.713Z,0.80
2018-07-03T12:50:35.740Z,0.80
2018-07-03T12:51:35.681Z,0.80
2018-07-03T12:52:36.676Z,1.00
2018-07-03T12:53:35.633Z,1.00
2018-07-03T12:54:35.673Z,1.00
2018-07-03T12:55:35.604Z,0.80
2018-07-03T12:56:35.685Z,1.20
2018-07-03T12:57:35.559Z,1.10
2018-07-03T12:58:35.589Z,1.90
2018-07-03T12:59:35.508Z,0.90
2018-07-03T13:00:35.634Z,0.80
2018-07-03T13:01:35.544Z,0.70
2018-07-03T13:02:36.572Z,0.70
2018-07-03T13:03:35.448Z,0.90
2018-07-03T13:04:37.478Z,0.80
2018-07-03T13:05:35.383Z,0.80
2018-07-03T13:06:35.360Z,0.90
2018-07-03T13:07:35.353Z,0.80
2018-07-03T13:08:35.336Z,0.70
2018-07-03T13:09:35.301Z,0.90
2018-07-03T13:10:35.281Z,1.10
2018-07-03T13:11:35.248Z,1.20
2018-07-03T13:12:35.245Z,1.20
2018-07-03T13:13:35.204Z,1.00
2018-07-03T13:14:35.194Z,1.20
2018-07-03T13:15:35.170Z,1.00
2018-07-03T13:16:35.146Z,0.90
2018-07-03T13:17:35.127Z,0.90
2018-07-03T13:18:35.111Z,0.70
2018-07-03T13:19:35.092Z,0.90
2018-07-03T13:20:35.069Z,0.80
2018-07-03T13:21:35.036Z,0.80
2018-07-03T13:22:35.028Z,0.90
2018-07-03T13:23:35.001Z,0.90
2018-07-03T13:24:35.001Z,0.70
2018-07-03T13:25:34.963Z,0.80
2018-07-03T13:26:34.958Z,0.90
2018-07-03T13:27:34.916Z,1.20
2018-07-03T13:28:34.893Z,0.90
2018-07-03T13:29:34.881Z,1.00
2018-07-03T13:30:34.855Z,0.90